Terminal Aerodrome Forecast
Issued by NWS Quad Cities IA IL

Home | Current Version | Previous Version | Text Only | Print | Product List | Glossary On
Versions: 1 2 3 4 5 6 7 8 9 10 11 12 13 14 15 16 17 18 19 20 21 22 23 24 25 26 27 28 29 30
000
FTUS43 KDVN 202329
TAFMLI
TAF
KMLI 202329Z 2100/2124 19011KT P6SM BKN070
     FM210100 19009KT P6SM VCTS BKN060CB
     FM210300 VRB06KT P6SM BKN050
     FM210900 10009KT 4SM BR BKN040
     FM211300 12011KT 6SM BR BKN040
     FM211600 18013G20KT P6SM SCT050=

USA.gov is the U.S. government's official web portal to all federal, state and local government web resources and services.